Time;durP1;ratioP1;P1;durP2;ratioP2;P2;SDS_P1;SDS_P2;PMS_P1;PMS_P2;Temp;Humidity;BMP_temperature;BMP_pressure;BME280_temperature;BME280_humidity;BME280_pressure;Samples;Min_cycle;Max_cycle;Signal;HPM_P1;HPM_P2
2023/05/09 00:01:36;;;;;;;;;;;20.30;92.90;;;;;;10366942;28;829;-72
2023/05/09 00:06:32;;;;;;;;;;;20.30;92.80;;;;;;10366133;28;1905;-72
2023/05/09 00:11:27;;;;;;;;;;;20.30;92.70;;;;;;10366146;28;843;-72
2023/05/09 00:16:23;;;;;;;;;;;20.30;92.70;;;;;;10366568;28;908;-72
2023/05/09 00:21:18;;;;;;;;;;;20.30;92.80;;;;;;10373834;28;772;-72
2023/05/09 00:26:14;;;;;;;;;;;20.30;92.80;;;;;;10373472;28;1972;-72
2023/05/09 00:31:09;;;;;;;;;;;20.30;92.80;;;;;;10374338;28;875;-72
2023/05/09 00:36:04;;;;;;;;;;;20.30;92.80;;;;;;10373714;28;862;-72
2023/05/09 00:41:00;;;;;;;;;;;20.30;92.80;;;;;;10372946;28;877;-72
2023/05/09 00:45:55;;;;;;;;;;;20.30;92.80;;;;;;10373296;28;1977;-72
2023/05/09 00:50:51;;;;;;;;;;;20.30;92.80;;;;;;10372503;28;1114;-72
2023/05/09 00:55:47;;;;;;;;;;;20.30;92.80;;;;;;10373120;28;963;-72
2023/05/09 01:00:42;;;;;;;;;;;20.30;92.70;;;;;;10373425;28;908;-72
2023/05/09 01:05:37;;;;;;;;;;;20.30;92.70;;;;;;10372545;28;1910;-72
2023/05/09 01:10:33;;;;;;;;;;;20.30;92.60;;;;;;10372997;28;814;-72
2023/05/09 01:15:28;;;;;;;;;;;20.30;92.60;;;;;;10372203;28;878;-72
2023/05/09 01:20:24;;;;;;;;;;;20.30;92.60;;;;;;10372887;28;948;-72
2023/05/09 01:25:19;;;;;;;;;;;20.30;92.60;;;;;;10371811;28;1967;-72
2023/05/09 01:30:15;;;;;;;;;;;20.30;92.70;;;;;;10371803;28;879;-72
2023/05/09 01:35:11;;;;;;;;;;;20.30;92.70;;;;;;10371426;28;1219;-72
2023/05/09 01:40:06;;;;;;;;;;;20.30;92.70;;;;;;10370587;28;951;-72
2023/05/09 01:45:01;;;;;;;;;;;20.30;92.70;;;;;;10370913;28;1917;-72
2023/05/09 01:49:57;;;;;;;;;;;20.20;92.60;;;;;;10370903;28;814;-72
2023/05/09 01:54:52;;;;;;;;;;;20.30;92.60;;;;;;10371469;28;821;-72
2023/05/09 01:59:47;;;;;;;;;;;20.20;92.60;;;;;;10371121;28;951;-72
2023/05/09 02:04:43;;;;;;;;;;;20.20;92.90;;;;;;10370172;28;1961;-72
2023/05/09 02:09:38;;;;;;;;;;;20.30;92.60;;;;;;10370698;28;885;-72
2023/05/09 02:14:34;;;;;;;;;;;20.30;92.40;;;;;;10369963;28;1055;-72
2023/05/09 02:19:29;;;;;;;;;;;20.20;92.50;;;;;;10369702;28;867;-72
2023/05/09 02:24:24;;;;;;;;;;;20.20;92.50;;;;;;10369099;28;1969;-72
2023/05/09 02:29:20;;;;;;;;;;;20.20;92.50;;;;;;10369342;28;888;-72
2023/05/09 02:34:15;;;;;;;;;;;20.20;92.60;;;;;;10369229;28;845;-72
2023/05/09 02:39:10;;;;;;;;;;;20.20;92.60;;;;;;10368356;28;884;-72
2023/05/09 02:44:06;;;;;;;;;;;20.30;92.50;;;;;;10367812;28;1978;-72
2023/05/09 02:49:01;;;;;;;;;;;20.20;92.60;;;;;;10368592;28;853;-72
2023/05/09 02:53:57;;;;;;;;;;;20.20;92.60;;;;;;10368921;28;805;-72
2023/05/09 02:58:52;;;;;;;;;;;20.20;92.50;;;;;;10367589;28;825;-72
2023/05/09 03:03:47;;;;;;;;;;;20.20;92.50;;;;;;10368539;28;1901;-72
2023/05/09 03:08:43;;;;;;;;;;;20.30;92.70;;;;;;10367841;28;791;-72
2023/05/09 03:13:38;;;;;;;;;;;20.20;92.60;;;;;;10368247;28;882;-72
2023/05/09 03:18:33;;;;;;;;;;;20.20;92.60;;;;;;10368803;28;892;-72
2023/05/09 03:23:30;;;;;;;;;;;20.20;92.70;;;;;;10367247;28;1906;-72
2023/05/09 03:28:25;;;;;;;;;;;20.20;92.70;;;;;;10368525;28;1378;-72
2023/05/09 03:33:21;;;;;;;;;;;20.20;92.50;;;;;;10367040;28;896;-72
2023/05/09 03:38:16;;;;;;;;;;;20.20;92.60;;;;;;10367212;28;802;-72
2023/05/09 03:43:11;;;;;;;;;;;20.20;92.60;;;;;;10367371;28;1968;-72
2023/05/09 03:48:10;;;;;;;;;;;20.20;92.70;;;;;;10366673;28;851;-72
2023/05/09 03:53:05;;;;;;;;;;;20.10;92.60;;;;;;10366342;28;889;-72
2023/05/09 03:58:00;;;;;;;;;;;20.10;92.50;;;;;;10366950;28;949;-72
2023/05/09 04:02:56;;;;;;;;;;;20.20;92.70;;;;;;10366895;28;1953;-72
2023/05/09 04:07:51;;;;;;;;;;;20.10;92.60;;;;;;10366210;28;865;-72
2023/05/09 04:12:46;;;;;;;;;;;20.10;92.60;;;;;;10367463;28;861;-72
2023/05/09 04:17:42;;;;;;;;;;;20.20;92.70;;;;;;10366038;28;861;-72
2023/05/09 04:22:38;;;;;;;;;;;20.10;92.60;;;;;;10366827;28;841;-72
2023/05/09 04:27:33;;;;;;;;;;;20.10;92.60;;;;;;10366702;28;1894;-72
2023/05/09 04:32:29;;;;;;;;;;;20.20;92.60;;;;;;10365968;28;819;-72
2023/05/09 04:37:24;;;;;;;;;;;20.20;92.50;;;;;;10366317;28;770;-72
2023/05/09 04:42:20;;;;;;;;;;;20.20;92.50;;;;;;10366264;28;833;-72
2023/05/09 04:47:15;;;;;;;;;;;20.20;92.50;;;;;;10365571;28;1971;-72
2023/05/09 04:52:11;;;;;;;;;;;20.20;92.50;;;;;;10366216;28;888;-72
2023/05/09 04:57:06;;;;;;;;;;;20.20;92.60;;;;;;10365385;28;757;-72
2023/05/09 05:02:02;;;;;;;;;;;20.20;92.50;;;;;;10364631;28;951;-72
2023/05/09 05:06:57;;;;;;;;;;;20.20;92.40;;;;;;10371534;28;1971;-72
2023/05/09 05:11:52;;;;;;;;;;;20.20;92.50;;;;;;10372488;28;883;-72
2023/05/09 05:16:48;;;;;;;;;;;20.20;92.40;;;;;;10372267;28;844;-72
2023/05/09 05:21:43;;;;;;;;;;;20.20;92.50;;;;;;10372703;28;984;-72
2023/05/09 05:26:38;;;;;;;;;;;20.20;92.60;;;;;;10372449;28;1973;-72
2023/05/09 05:31:35;;;;;;;;;;;20.30;92.60;;;;;;10372319;28;967;-72
2023/05/09 05:36:31;;;;;;;;;;;20.20;92.50;;;;;;10371460;28;981;-72
2023/05/09 05:41:26;;;;;;;;;;;20.30;92.60;;;;;;10371277;28;840;-72
2023/05/09 05:46:21;;;;;;;;;;;20.20;92.60;;;;;;10371602;28;1918;-72
2023/05/09 05:51:17;;;;;;;;;;;20.20;92.60;;;;;;10370931;28;867;-72
2023/05/09 05:56:12;;;;;;;;;;;20.20;92.50;;;;;;10371311;28;944;-72
2023/05/09 06:01:07;;;;;;;;;;;20.20;92.60;;;;;;10369945;28;880;-72
2023/05/09 06:06:03;;;;;;;;;;;20.20;92.50;;;;;;10370287;28;1948;-72
2023/05/09 06:10:58;;;;;;;;;;;20.30;92.60;;;;;;10370043;28;886;-72
2023/05/09 06:15:54;;;;;;;;;;;20.20;92.50;;;;;;10369911;28;881;-72
2023/05/09 06:20:49;;;;;;;;;;;20.20;92.50;;;;;;10370450;28;857;-72
2023/05/09 06:25:44;;;;;;;;;;;20.10;92.50;;;;;;10369728;28;1906;-72
2023/05/09 06:30:40;;;;;;;;;;;20.20;92.70;;;;;;10369255;28;773;-68
2023/05/09 06:35:35;;;;;;;;;;;20.10;92.50;;;;;;10369756;28;863;-68
2023/05/09 06:40:30;;;;;;;;;;;20.10;92.60;;;;;;10369506;28;809;-68
2023/05/09 06:45:26;;;;;;;;;;;20.20;93.20;;;;;;10368136;28;1959;-68
2023/05/09 06:50:21;;;;;;;;;;;20.20;92.70;;;;;;10368565;28;791;-68
2023/05/09 06:55:17;;;;;;;;;;;20.20;92.90;;;;;;10368979;28;955;-68
2023/05/09 07:00:12;;;;;;;;;;;20.20;93.00;;;;;;10368258;28;770;-72
2023/05/09 07:05:08;;;;;;;;;;;20.20;93.00;;;;;;10368558;28;1906;-68
2023/05/09 07:10:03;;;;;;;;;;;20.20;93.00;;;;;;10368434;28;762;-68
2023/05/09 07:14:58;;;;;;;;;;;20.20;92.90;;;;;;10367899;28;855;-67
2023/05/09 07:19:54;;;;;;;;;;;20.20;93.10;;;;;;10368116;28;854;-68
2023/05/09 07:24:50;;;;;;;;;;;20.20;93.00;;;;;;10366893;28;1953;-67
2023/05/09 07:29:47;;;;;;;;;;;20.20;93.20;;;;;;10366725;28;869;-68
2023/05/09 07:34:43;;;;;;;;;;;20.20;93.20;;;;;;10367735;28;842;-68
2023/05/09 07:39:38;;;;;;;;;;;20.20;93.00;;;;;;10366976;28;791;-68
2023/05/09 07:44:34;;;;;;;;;;;20.30;93.10;;;;;;10367367;28;1910;-68
2023/05/09 07:49:29;;;;;;;;;;;20.20;93.00;;;;;;10366736;28;919;-68
2023/05/09 07:54:25;;;;;;;;;;;20.30;93.10;;;;;;10366565;28;883;-68
2023/05/09 07:59:20;;;;;;;;;;;20.30;93.20;;;;;;10366477;28;962;-68
2023/05/09 08:04:15;;;;;;;;;;;20.20;93.10;;;;;;10366290;28;1906;-67
2023/05/09 08:09:11;;;;;;;;;;;20.20;93.00;;;;;;10366402;28;857;-68
2023/05/09 08:14:06;;;;;;;;;;;20.30;93.10;;;;;;10366147;28;786;-67
2023/05/09 08:19:02;;;;;;;;;;;20.30;93.20;;;;;;10366078;28;777;-68
2023/05/09 08:23:57;;;;;;;;;;;20.30;93.20;;;;;;10365523;28;1969;-72
2023/05/09 08:28:53;;;;;;;;;;;20.30;93.10;;;;;;10367041;28;1123;-71
2023/05/09 08:33:48;;;;;;;;;;;20.30;93.10;;;;;;10366388;28;846;-71
2023/05/09 08:38:43;;;;;;;;;;;20.30;93.30;;;;;;10366761;28;770;-71
2023/05/09 08:43:39;;;;;;;;;;;20.30;93.30;;;;;;10374125;28;1918;-68
2023/05/09 08:48:37;;;;;;;;;;;20.30;93.40;;;;;;10373315;28;941;-67
2023/05/09 08:53:33;;;;;;;;;;;20.30;93.30;;;;;;10373849;28;888;-67
2023/05/09 08:58:28;;;;;;;;;;;20.30;93.30;;;;;;10373102;28;843;-67
2023/05/09 09:03:25;;;;;;;;;;;20.30;93.40;;;;;;10372818;28;1973;-67
2023/05/09 09:08:20;;;;;;;;;;;20.30;93.40;;;;;;10372907;28;949;-67
2023/05/09 09:13:16;;;;;;;;;;;20.30;93.20;;;;;;10373198;28;872;-67
2023/05/09 09:18:11;;;;;;;;;;;20.30;93.40;;;;;;10372297;28;828;-67
2023/05/09 09:23:06;;;;;;;;;;;20.20;93.30;;;;;;10372035;28;1965;-67
2023/05/09 09:28:02;;;;;;;;;;;20.30;93.40;;;;;;10372416;28;1173;-67
2023/05/09 09:32:57;;;;;;;;;;;20.30;93.40;;;;;;10371649;28;870;-67
2023/05/09 09:37:53;;;;;;;;;;;20.30;93.40;;;;;;10370936;28;801;-67
2023/05/09 09:42:48;;;;;;;;;;;20.30;93.40;;;;;;10371292;28;789;-67
2023/05/09 09:47:43;;;;;;;;;;;20.30;93.40;;;;;;10371006;28;1966;-68
2023/05/09 09:52:39;;;;;;;;;;;20.30;93.30;;;;;;10370476;28;933;-68
2023/05/09 09:57:38;;;;;;;;;;;20.30;93.30;;;;;;10370173;28;917;-68
2023/05/09 10:02:34;;;;;;;;;;;20.30;93.30;;;;;;10370713;28;771;-68
2023/05/09 10:07:29;;;;;;;;;;;20.20;93.30;;;;;;10370215;28;1897;-68
2023/05/09 10:12:24;;;;;;;;;;;20.30;93.40;;;;;;10370125;28;983;-68
2023/05/09 10:17:20;;;;;;;;;;;20.30;93.50;;;;;;10370115;28;814;-67
2023/05/09 10:22:16;;;;;;;;;;;20.30;93.40;;;;;;10370425;28;769;-67
2023/05/09 10:27:12;;;;;;;;;;;20.30;93.40;;;;;;10369394;28;1898;-68
2023/05/09 10:32:08;;;;;;;;;;;20.30;93.40;;;;;;10369239;28;789;-67
2023/05/09 10:37:03;;;;;;;;;;;20.30;93.50;;;;;;10369584;28;786;-72
2023/05/09 10:41:59;;;;;;;;;;;20.30;93.70;;;;;;10369981;28;861;-71
2023/05/09 10:46:54;;;;;;;;;;;20.30;93.60;;;;;;10369352;28;1977;-71
2023/05/09 10:51:50;;;;;;;;;;;20.30;93.50;;;;;;10368407;28;874;-72
2023/05/09 10:56:45;;;;;;;;;;;20.30;93.50;;;;;;10368386;28;894;-72
2023/05/09 11:01:41;;;;;;;;;;;20.30;93.40;;;;;;10368040;28;883;-72
2023/05/09 11:06:36;;;;;;;;;;;20.40;93.40;;;;;;10368637;28;1941;-72
2023/05/09 11:11:32;;;;;;;;;;;20.40;93.40;;;;;;10368532;28;853;-72
2023/05/09 11:16:27;;;;;;;;;;;20.30;93.40;;;;;;10368252;28;825;-72
2023/05/09 11:21:22;;;;;;;;;;;20.30;93.40;;;;;;10367450;28;881;-71
2023/05/09 11:26:18;;;;;;;;;;;20.30;93.30;;;;;;10366910;28;1902;-71
2023/05/09 11:31:13;;;;;;;;;;;20.30;93.30;;;;;;10368074;28;905;-72
2023/05/09 11:36:08;;;;;;;;;;;20.30;93.40;;;;;;10366987;28;849;-72
2023/05/09 11:41:04;;;;;;;;;;;20.30;93.40;;;;;;10366341;28;1027;-72
2023/05/09 11:45:59;;;;;;;;;;;20.30;93.20;;;;;;10366723;28;1910;-71
2023/05/09 11:50:54;;;;;;;;;;;20.40;93.40;;;;;;10366911;28;936;-71
2023/05/09 11:55:50;;;;;;;;;;;20.40;93.30;;;;;;10366773;28;960;-72
2023/05/09 12:00:45;;;;;;;;;;;20.40;93.40;;;;;;10366356;28;786;-72
2023/05/09 12:05:41;;;;;;;;;;;20.40;93.30;;;;;;10366311;28;1901;-72
2023/05/09 12:10:36;;;;;;;;;;;20.40;93.30;;;;;;10366815;28;958;-72
2023/05/09 12:15:32;;;;;;;;;;;20.30;93.30;;;;;;10372716;28;1058;-73
2023/05/09 12:20:30;;;;;;;;;;;20.30;93.30;;;;;;10374567;28;975;-72
2023/05/09 12:25:25;;;;;;;;;;;20.40;93.30;;;;;;10374588;28;1887;-72
2023/05/09 12:30:20;;;;;;;;;;;20.40;93.10;;;;;;10374746;28;841;-72
2023/05/09 12:35:16;;;;;;;;;;;20.40;93.30;;;;;;10374572;28;817;-72
2023/05/09 12:40:14;;;;;;;;;;;20.40;93.20;;;;;;10374460;28;799;-72
2023/05/09 12:45:09;;;;;;;;;;;20.40;93.30;;;;;;10373544;28;1910;-72
2023/05/09 12:50:05;;;;;;;;;;;20.40;93.30;;;;;;10373187;28;787;-71
2023/05/09 12:55:00;;;;;;;;;;;20.40;93.30;;;;;;10372249;28;1023;-72
2023/05/09 12:59:55;;;;;;;;;;;20.40;93.30;;;;;;10373404;28;786;-72
2023/05/09 13:04:51;;;;;;;;;;;20.40;93.30;;;;;;10371870;28;1960;-72
2023/05/09 13:09:46;;;;;;;;;;;20.40;93.30;;;;;;10373026;28;860;-72
2023/05/09 13:14:41;;;;;;;;;;;20.50;93.40;;;;;;10372208;28;833;-72
2023/05/09 13:19:38;;;;;;;;;;;20.40;93.20;;;;;;10372025;28;755;-72
2023/05/09 13:24:33;;;;;;;;;;;20.40;93.20;;;;;;10370889;28;1965;-72
2023/05/09 13:29:29;;;;;;;;;;;20.40;93.30;;;;;;10371663;28;920;-72
2023/05/09 13:34:24;;;;;;;;;;;20.40;93.40;;;;;;10371402;28;1157;-72
2023/05/09 13:39:19;;;;;;;;;;;20.40;93.30;;;;;;10371245;28;774;-72
2023/05/09 13:44:15;;;;;;;;;;;20.40;93.30;;;;;;10370949;28;1913;-72
2023/05/09 13:49:11;;;;;;;;;;;20.40;93.20;;;;;;10370178;28;1228;-72
2023/05/09 13:54:11;;;;;;;;;;;20.40;93.20;;;;;;10370588;28;910;-72
2023/05/09 13:59:06;;;;;;;;;;;20.40;93.30;;;;;;10371022;28;796;-72
2023/05/09 14:04:02;;;;;;;;;;;20.40;93.30;;;;;;10370959;28;1906;-72
2023/05/09 14:08:57;;;;;;;;;;;20.40;93.40;;;;;;10370132;28;755;-72
2023/05/09 14:13:52;;;;;;;;;;;20.30;93.20;;;;;;10370133;28;757;-68
2023/05/09 14:18:48;;;;;;;;;;;20.30;93.40;;;;;;10370606;28;916;-70
2023/05/09 14:23:43;;;;;;;;;;;20.40;94.10;;;;;;10369429;28;1971;-68
2023/05/09 14:28:39;;;;;;;;;;;20.40;94.40;;;;;;10368976;28;1059;-67
2023/05/09 14:33:34;;;;;;;;;;;20.40;94.60;;;;;;10369482;28;907;-67
2023/05/09 14:38:32;;;;;;;;;;;20.40;94.50;;;;;;10368142;28;733;-68
2023/05/09 14:43:27;;;;;;;;;;;20.40;94.40;;;;;;10368896;28;1917;-67
2023/05/09 14:48:22;;;;;;;;;;;20.40;94.60;;;;;;10368796;28;929;-67
2023/05/09 14:53:18;;;;;;;;;;;20.50;94.70;;;;;;10369258;28;796;-67
2023/05/09 14:58:14;;;;;;;;;;;20.40;94.60;;;;;;10368433;28;805;-67
2023/05/09 15:03:10;;;;;;;;;;;20.40;94.40;;;;;;10368273;28;761;-67
2023/05/09 15:08:05;;;;;;;;;;;20.40;94.60;;;;;;10368575;28;1963;-67
2023/05/09 15:13:02;;;;;;;;;;;20.40;94.40;;;;;;10367851;28;832;-67
2023/05/09 15:17:58;;;;;;;;;;;20.40;94.50;;;;;;10367667;28;857;-67
2023/05/09 15:22:53;;;;;;;;;;;20.40;94.40;;;;;;10367713;28;930;-67
2023/05/09 15:27:51;;;;;;;;;;;20.40;94.30;;;;;;10368211;28;1948;-67
2023/05/09 15:32:47;;;;;;;;;;;20.40;94.40;;;;;;10366572;28;895;-67
2023/05/09 15:37:42;;;;;;;;;;;20.50;94.50;;;;;;10366491;28;870;-69
2023/05/09 15:42:38;;;;;;;;;;;20.50;94.50;;;;;;10367028;28;911;-67
2023/05/09 15:47:33;;;;;;;;;;;20.50;94.40;;;;;;10366308;28;1980;-67
2023/05/09 15:52:29;;;;;;;;;;;20.50;94.40;;;;;;10367480;28;834;-67
2023/05/09 15:57:24;;;;;;;;;;;20.50;94.40;;;;;;10366103;28;1012;-67
2023/05/09 16:02:20;;;;;;;;;;;20.50;94.40;;;;;;10366594;28;963;-67
2023/05/09 16:07:18;;;;;;;;;;;20.50;94.50;;;;;;10366259;28;1965;-67
2023/05/09 16:12:14;;;;;;;;;;;20.50;94.50;;;;;;10366239;28;839;-67
2023/05/09 16:17:09;;;;;;;;;;;20.50;94.40;;;;;;10365538;28;925;-67
2023/05/09 16:22:04;;;;;;;;;;;20.50;94.40;;;;;;10366298;28;869;-67
2023/05/09 16:27:00;;;;;;;;;;;20.50;94.40;;;;;;10366547;28;1902;-67
2023/05/09 16:31:55;;;;;;;;;;;20.60;94.60;;;;;;10365951;28;852;-67
2023/05/09 16:36:51;;;;;;;;;;;20.60;94.50;;;;;;10365848;28;782;-67
2023/05/09 16:41:46;;;;;;;;;;;20.50;94.50;;;;;;10366342;28;842;-67
2023/05/09 16:46:41;;;;;;;;;;;20.50;94.40;;;;;;10365080;28;1975;-67
2023/05/09 16:51:37;;;;;;;;;;;20.50;94.50;;;;;;10364920;28;847;-67
2023/05/09 16:56:32;;;;;;;;;;;20.60;94.60;;;;;;10365414;28;1038;-67
2023/05/09 17:01:28;;;;;;;;;;;20.50;94.50;;;;;;10369266;28;899;-67
2023/05/09 17:06:23;;;;;;;;;;;20.60;94.60;;;;;;10372802;28;1973;-67
2023/05/09 17:11:19;;;;;;;;;;;20.50;94.40;;;;;;10372694;28;1228;-67
2023/05/09 17:16:15;;;;;;;;;;;20.60;94.60;;;;;;10372441;28;878;-67
2023/05/09 17:21:10;;;;;;;;;;;20.50;94.50;;;;;;10372327;28;873;-67
2023/05/09 17:26:05;;;;;;;;;;;20.50;94.50;;;;;;10372174;28;1961;-68
2023/05/09 17:31:02;;;;;;;;;;;20.50;94.40;;;;;;10372546;28;887;-67
2023/05/09 17:35:57;;;;;;;;;;;20.50;94.40;;;;;;10371770;28;892;-67
2023/05/09 17:40:52;;;;;;;;;;;20.50;94.40;;;;;;10371519;28;794;-68
2023/05/09 17:45:48;;;;;;;;;;;20.50;94.40;;;;;;10371796;28;1963;-67
2023/05/09 17:50:45;;;;;;;;;;;20.50;94.50;;;;;;10370623;28;994;-67
2023/05/09 17:55:40;;;;;;;;;;;20.50;94.40;;;;;;10371506;28;880;-67
2023/05/09 18:00:35;;;;;;;;;;;20.50;94.50;;;;;;10370776;28;908;-67
2023/05/09 18:05:31;;;;;;;;;;;20.50;94.40;;;;;;10371012;28;1906;-67
2023/05/09 18:10:26;;;;;;;;;;;20.60;94.50;;;;;;10370078;28;868;-67
2023/05/09 18:15:21;;;;;;;;;;;20.60;94.40;;;;;;10370280;28;837;-67
2023/05/09 18:20:17;;;;;;;;;;;20.60;94.40;;;;;;10369908;28;831;-68
2023/05/09 18:25:12;;;;;;;;;;;20.60;94.40;;;;;;10369344;28;1902;-67
2023/05/09 18:30:08;;;;;;;;;;;20.50;94.40;;;;;;10369560;28;845;-68
2023/05/09 18:35:03;;;;;;;;;;;20.50;94.40;;;;;;10369036;28;943;-67
2023/05/09 18:39:59;;;;;;;;;;;20.50;94.40;;;;;;10369130;28;969;-67
2023/05/09 18:44:54;;;;;;;;;;;20.60;94.40;;;;;;10369996;28;1910;-67
2023/05/09 18:49:50;;;;;;;;;;;20.60;94.50;;;;;;10368800;28;769;-67
2023/05/09 18:54:45;;;;;;;;;;;20.60;94.50;;;;;;10368670;28;980;-67
2023/05/09 18:59:40;;;;;;;;;;;20.50;94.40;;;;;;10368426;28;805;-67
2023/05/09 19:04:36;;;;;;;;;;;20.60;94.30;;;;;;10369243;28;1910;-68
2023/05/09 19:09:31;;;;;;;;;;;20.60;94.30;;;;;;10368676;28;824;-67
2023/05/09 19:14:27;;;;;;;;;;;20.60;94.40;;;;;;10368644;28;777;-67
2023/05/09 19:19:22;;;;;;;;;;;20.60;94.40;;;;;;10367654;28;977;-67
2023/05/09 19:24:18;;;;;;;;;;;20.60;94.30;;;;;;10367324;28;1967;-68
2023/05/09 19:29:13;;;;;;;;;;;20.50;94.30;;;;;;10368006;28;878;-67
2023/05/09 19:34:09;;;;;;;;;;;20.60;94.50;;;;;;10367820;28;1016;-68
2023/05/09 19:39:04;;;;;;;;;;;20.60;94.40;;;;;;10367090;28;933;-67
2023/05/09 19:43:59;;;;;;;;;;;20.60;94.40;;;;;;10366779;28;1991;-67
2023/05/09 19:48:55;;;;;;;;;;;20.50;94.40;;;;;;10366832;28;936;-67
2023/05/09 19:53:50;;;;;;;;;;;20.50;94.40;;;;;;10366068;28;967;-71
2023/05/09 19:58:48;;;;;;;;;;;20.50;94.30;;;;;;10367639;28;823;-71
2023/05/09 20:03:45;;;;;;;;;;;20.50;94.40;;;;;;10366459;28;1906;-71
2023/05/09 20:08:40;;;;;;;;;;;20.50;94.40;;;;;;10366972;28;823;-72
2023/05/09 20:13:36;;;;;;;;;;;20.50;94.30;;;;;;10366281;28;809;-71
2023/05/09 20:18:32;;;;;;;;;;;20.50;94.30;;;;;;10366217;28;789;-71
2023/05/09 20:23:27;;;;;;;;;;;20.40;94.30;;;;;;10366876;28;834;-72
2023/05/09 20:28:23;;;;;;;;;;;20.40;94.30;;;;;;10366343;28;1290;-71
2023/05/09 20:33:18;;;;;;;;;;;20.40;94.10;;;;;;10366874;28;852;-71
2023/05/09 20:38:14;;;;;;;;;;;20.40;94.10;;;;;;10373449;28;825;-72
2023/05/09 20:43:09;;;;;;;;;;;20.40;94.00;;;;;;10373758;28;969;-72
2023/05/09 20:48:05;;;;;;;;;;;20.40;94.10;;;;;;10599460;22;1910;-71
2023/05/09 20:53:00;;;;;;;;;;;20.30;93.90;;;;;;10332476;28;876;-72
2023/05/09 20:57:56;;;;;;;;;;;20.30;94.00;;;;;;10333118;28;806;-72
2023/05/09 21:02:53;;;;;;;;;;;20.30;94.00;;;;;;10331387;28;1219;-71
2023/05/09 21:07:49;;;;;;;;;;;20.40;94.10;;;;;;10332171;28;1917;-71
2023/05/09 21:12:44;;;;;;;;;;;20.40;94.00;;;;;;10331988;28;861;-72
2023/05/09 21:17:39;;;;;;;;;;;20.40;94.10;;;;;;10331229;28;770;-71
2023/05/09 21:22:35;;;;;;;;;;;20.30;94.00;;;;;;10331067;28;899;-71
2023/05/09 21:27:30;;;;;;;;;;;20.30;94.00;;;;;;10330735;28;1925;-71
2023/05/09 21:32:27;;;;;;;;;;;20.30;94.00;;;;;;10331308;28;912;-71
2023/05/09 21:37:22;;;;;;;;;;;20.30;93.90;;;;;;10330489;28;973;-71
2023/05/09 21:42:18;;;;;;;;;;;20.40;93.90;;;;;;10330347;28;750;-71
2023/05/09 21:47:13;;;;;;;;;;;20.30;93.90;;;;;;10330097;28;1901;-72
2023/05/09 21:52:08;;;;;;;;;;;20.30;93.90;;;;;;10330123;28;1276;-72
2023/05/09 21:57:04;;;;;;;;;;;20.30;93.90;;;;;;10330471;28;852;-71
2023/05/09 22:01:59;;;;;;;;;;;20.30;93.80;;;;;;10329660;28;821;-71
2023/05/09 22:06:55;;;;;;;;;;;20.30;93.80;;;;;;10328871;28;1906;-72
2023/05/09 22:11:50;;;;;;;;;;;20.30;93.90;;;;;;10329299;28;762;-71
2023/05/09 22:16:46;;;;;;;;;;;20.30;93.80;;;;;;10328785;28;1145;-71
2023/05/09 22:21:41;;;;;;;;;;;20.30;93.90;;;;;;10328891;28;862;-71
2023/05/09 22:26:36;;;;;;;;;;;20.30;93.90;;;;;;10311427;28;1910;-71
2023/05/09 22:31:32;;;;;;;;;;;20.30;93.90;;;;;;10328547;28;964;-72
2023/05/09 22:36:27;;;;;;;;;;;20.30;94.00;;;;;;10328857;28;916;-71
2023/05/09 22:41:22;;;;;;;;;;;20.30;93.90;;;;;;10328674;28;919;-72
2023/05/09 22:46:18;;;;;;;;;;;20.30;94.00;;;;;;10327987;28;1965;-71
2023/05/09 22:51:13;;;;;;;;;;;20.30;94.10;;;;;;10328311;28;893;-72
2023/05/09 22:56:09;;;;;;;;;;;20.30;94.10;;;;;;10327390;28;993;-71
2023/05/09 23:01:05;;;;;;;;;;;20.30;94.10;;;;;;10326359;28;793;-71
2023/05/09 23:06:00;;;;;;;;;;;20.30;94.20;;;;;;10327006;28;1973;-72
2023/05/09 23:10:55;;;;;;;;;;;20.20;94.00;;;;;;10326876;28;916;-71
2023/05/09 23:15:51;;;;;;;;;;;20.30;94.00;;;;;;10326707;28;959;-71
2023/05/09 23:20:46;;;;;;;;;;;20.30;93.90;;;;;;10327126;28;825;-71
2023/05/09 23:25:43;;;;;;;;;;;20.30;93.90;;;;;;10325843;28;1902;-71
2023/05/09 23:30:38;;;;;;;;;;;20.30;94.00;;;;;;10326179;28;980;-71
2023/05/09 23:35:33;;;;;;;;;;;20.30;93.80;;;;;;10325480;28;1404;-71
2023/05/09 23:40:29;;;;;;;;;;;20.20;93.80;;;;;;10325954;28;822;-71
2023/05/09 23:45:24;;;;;;;;;;;20.30;93.80;;;;;;10325529;28;1960;-72
2023/05/09 23:50:19;;;;;;;;;;;20.30;93.90;;;;;;10326449;28;793;-72
2023/05/09 23:55:15;;;;;;;;;;;20.20;93.90;;;;;;10325819;28;899;-71
